Time;durP1;ratioP1;P1;durP2;ratioP2;P2;SDS_P1;SDS_P2;PMS_P1;PMS_P2;Temp;Humidity;BMP_temperature;BMP_pressure;BME280_temperature;BME280_humidity;BME280_pressure;Samples;Min_cycle;Max_cycle;Signal;HPM_P1;HPM_P2
2023/09/10 00:01:49;;;;;;;642.92;620.05;;;;;;;;;;5019791;28;20613;-91
2023/09/10 00:04:15;;;;;;;626.97;604.60;;;;;;;;;;5020557;28;20170;-89
2023/09/10 00:06:41;;;;;;;628.08;605.95;;;;;;;;;;5020451;28;20257;-92
2023/09/10 00:09:09;;;;;;;615.65;593.95;;;;;;;;;;5024015;28;20215;-91
2023/09/10 00:11:35;;;;;;;617.17;595.35;;;;;;;;;;5053020;28;20257;-94
2023/09/10 00:14:01;;;;;;;606.42;585.28;;;;;;;;;;5055535;28;20196;-94
2023/09/10 00:16:26;;;;;;;617.95;595.65;;;;;;;;;;5031277;28;20190;-93
2023/09/10 00:18:53;;;;;;;611.88;590.15;;;;;;;;;;5002181;28;20190;-92
2023/09/10 00:21:19;;;;;;;609.35;588.00;;;;;;;;;;5000993;28;20220;-91
2023/09/10 00:23:45;;;;;;;624.65;602.92;;;;;;;;;;5001535;28;20198;-93
2023/09/10 00:26:11;;;;;;;618.53;596.63;;;;;;;;;;5005187;28;20175;-92
2023/09/10 00:28:37;;;;;;;606.25;585.13;;;;;;;;;;5004648;28;20171;-92
2023/09/10 00:31:04;;;;;;;598.78;577.90;;;;;;;;;;5005393;28;20202;-94
2023/09/10 00:33:30;;;;;;;614.70;593.13;;;;;;;;;;5005468;28;20178;-93
2023/09/10 00:35:56;;;;;;;611.05;589.03;;;;;;;;;;5004567;28;20202;-93
2023/09/10 00:38:22;;;;;;;605.08;583.85;;;;;;;;;;5004969;28;20473;-92
2023/09/10 00:40:48;;;;;;;615.30;593.80;;;;;;;;;;5024747;28;20243;-92
2023/09/10 00:43:14;;;;;;;603.80;582.88;;;;;;;;;;5043810;28;20173;-92
2023/09/10 00:45:41;;;;;;;603.03;582.00;;;;;;;;;;5045334;28;20172;-93
2023/09/10 00:48:07;;;;;;;598.65;577.65;;;;;;;;;;5047516;28;20188;-96
2023/09/10 00:50:33;;;;;;;600.38;579.47;;;;;;;;;;5010067;28;20184;-93
2023/09/10 00:53:00;;;;;;;599.00;578.33;;;;;;;;;;5006345;28;20186;-93
2023/09/10 00:55:29;;;;;;;587.15;566.63;;;;;;;;;;5004390;28;20178;-92
2023/09/10 00:57:55;;;;;;;595.40;574.75;;;;;;;;;;5003605;28;20174;-91
2023/09/10 01:00:21;;;;;;;615.90;593.95;;;;;;;;;;5005772;28;20467;-92
2023/09/10 01:02:49;;;;;;;622.65;600.35;;;;;;;;;;5007697;28;20200;-93
2023/09/10 01:05:17;;;;;;;624.28;601.78;;;;;;;;;;5009326;28;20588;-91
2023/09/10 01:07:43;;;;;;;601.83;580.85;;;;;;;;;;5024017;28;20262;-91
2023/09/10 01:10:09;;;;;;;600.08;578.72;;;;;;;;;;5023149;28;20205;-90
2023/09/10 01:12:35;;;;;;;607.25;586.03;;;;;;;;;;5023157;28;20217;-93
2023/09/10 01:15:21;;;;;;;613.53;591.65;;;;;;;;;;5022632;28;20196;-92
2023/09/10 01:17:50;;;;;;;602.22;580.72;;;;;;;;;;5023098;28;20523;-92
2023/09/10 01:20:35;;;;;;;587.95;567.45;;;;;;;;;;5023064;28;20207;-91
2023/09/10 01:23:08;;;;;;;578.35;558.58;;;;;;;;;;5023726;28;20185;-93
2023/09/10 01:25:34;;;;;;;588.00;567.65;;;;;;;;;;5017088;28;20174;-91
2023/09/10 01:28:04;;;;;;;568.00;548.05;;;;;;;;;;5002072;28;20172;-93
2023/09/10 01:30:31;;;;;;;549.95;531.53;;;;;;;;;;5002406;28;20188;-91
2023/09/10 01:32:59;;;;;;;574.70;555.10;;;;;;;;;;5011424;28;20192;-91
2023/09/10 01:35:31;;;;;;;537.10;519.38;;;;;;;;;;5022229;28;20215;-91
2023/09/10 01:37:57;;;;;;;550.65;532.08;;;;;;;;;;5021954;28;20269;-95
2023/09/10 01:40:27;;;;;;;562.80;543.35;;;;;;;;;;5005515;28;20217;-92
2023/09/10 01:42:54;;;;;;;548.88;530.35;;;;;;;;;;5003398;28;20174;-92
2023/09/10 01:45:21;;;;;;;515.03;497.92;;;;;;;;;;5004553;28;20162;-91
2023/09/10 01:47:47;;;;;;;552.53;533.55;;;;;;;;;;5000143;28;20633;-90
2023/09/10 01:50:14;;;;;;;574.45;554.70;;;;;;;;;;5002626;28;20185;-89
2023/09/10 01:52:40;;;;;;;580.08;560.58;;;;;;;;;;5002686;28;20658;-90
2023/09/10 01:55:06;;;;;;;576.28;556.35;;;;;;;;;;5002221;28;20182;-91
2023/09/10 01:57:32;;;;;;;577.60;557.70;;;;;;;;;;5002086;28;20178;-89
2023/09/10 01:59:58;;;;;;;567.75;547.83;;;;;;;;;;5002319;28;20290;-91
2023/09/10 02:03:03;;;;;;;575.75;556.08;;;;;;;;;;5004237;28;20205;-90
2023/09/10 02:06:03;;;;;;;543.95;525.97;;;;;;;;;;4943023;29;20219;-89
2023/09/10 02:08:29;;;;;;;546.15;527.72;;;;;;;;;;4997063;28;20559;-90
2023/09/10 02:10:55;;;;;;;566.30;547.35;;;;;;;;;;5001440;28;20250;-90
2023/09/10 02:13:21;;;;;;;574.08;554.58;;;;;;;;;;5001526;28;20570;-89
2023/09/10 02:15:48;;;;;;;559.30;540.53;;;;;;;;;;5000118;28;20190;-91
2023/09/10 02:18:14;;;;;;;567.53;547.90;;;;;;;;;;5001313;28;20649;-91
2023/09/10 02:20:40;;;;;;;558.97;540.13;;;;;;;;;;5002767;28;20215;-90
2023/09/10 02:23:06;;;;;;;566.22;547.22;;;;;;;;;;5019658;28;20730;-89
2023/09/10 02:25:35;;;;;;;565.42;546.35;;;;;;;;;;5019747;28;20183;-88
2023/09/10 02:28:02;;;;;;;553.17;534.45;;;;;;;;;;5020634;28;20260;-89
2023/09/10 02:30:28;;;;;;;557.72;538.75;;;;;;;;;;5021396;28;20181;-91
2023/09/10 02:32:54;;;;;;;543.63;525.38;;;;;;;;;;5028507;28;20272;-90
2023/09/10 02:35:20;;;;;;;536.03;518.20;;;;;;;;;;5040150;28;20225;-89
2023/09/10 02:37:46;;;;;;;537.63;519.90;;;;;;;;;;5040814;28;20173;-88
2023/09/10 02:40:12;;;;;;;537.00;518.95;;;;;;;;;;5039576;28;20204;-91
2023/09/10 02:42:39;;;;;;;527.83;510.38;;;;;;;;;;5039170;28;20280;-90
2023/09/10 02:45:05;;;;;;;524.15;506.55;;;;;;;;;;5040427;28;20215;-89
2023/09/10 02:47:31;;;;;;;529.85;511.88;;;;;;;;;;5040604;28;20169;-89
2023/09/10 02:49:57;;;;;;;531.50;513.72;;;;;;;;;;5039241;28;20177;-89
2023/09/10 02:52:24;;;;;;;494.52;478.50;;;;;;;;;;5040996;28;20226;-90
2023/09/10 02:54:51;;;;;;;526.75;509.45;;;;;;;;;;5019095;28;20726;-90
2023/09/10 02:57:17;;;;;;;523.15;506.02;;;;;;;;;;5000940;28;20182;-88
2023/09/10 02:59:43;;;;;;;506.50;490.05;;;;;;;;;;5000199;28;20691;-89
2023/09/10 03:02:09;;;;;;;543.85;525.83;;;;;;;;;;5000060;28;20202;-91
2023/09/10 03:04:35;;;;;;;488.65;472.80;;;;;;;;;;5000460;28;20173;-90
2023/09/10 03:07:01;;;;;;;477.05;461.80;;;;;;;;;;4998762;28;20648;-88
2023/09/10 03:09:27;;;;;;;468.00;452.90;;;;;;;;;;5013538;28;20201;-91
2023/09/10 03:11:53;;;;;;;494.65;478.13;;;;;;;;;;5039120;28;20204;-90
2023/09/10 03:14:19;;;;;;;483.55;467.98;;;;;;;;;;5039426;28;20189;-88
2023/09/10 03:16:45;;;;;;;473.95;458.90;;;;;;;;;;5039538;28;20885;-90
2023/09/10 03:19:12;;;;;;;484.23;469.05;;;;;;;;;;5039814;28;20196;-91
2023/09/10 03:21:38;;;;;;;469.23;454.38;;;;;;;;;;5037453;28;20698;-89
2023/09/10 03:24:04;;;;;;;472.38;457.40;;;;;;;;;;5039762;28;20196;-90
2023/09/10 03:26:30;;;;;;;490.98;475.20;;;;;;;;;;5023611;28;20186;-89
2023/09/10 03:28:56;;;;;;;481.77;466.10;;;;;;;;;;5014549;28;20186;-90
2023/09/10 03:31:22;;;;;;;481.05;465.70;;;;;;;;;;5001197;28;20345;-91
2023/09/10 03:33:49;;;;;;;479.08;463.58;;;;;;;;;;5000407;28;20731;-91
2023/09/10 03:36:15;;;;;;;487.05;471.33;;;;;;;;;;4999100;28;20187;-90
2023/09/10 03:38:41;;;;;;;468.98;453.88;;;;;;;;;;5000161;28;20229;-90
2023/09/10 03:41:07;;;;;;;464.70;450.10;;;;;;;;;;5000775;28;20700;-88
2023/09/10 03:43:33;;;;;;;454.27;439.80;;;;;;;;;;5003354;28;20277;-88
2023/09/10 03:45:59;;;;;;;452.35;438.13;;;;;;;;;;5002322;28;20188;-89
2023/09/10 03:48:25;;;;;;;448.85;434.35;;;;;;;;;;5001077;28;20892;-89
2023/09/10 03:50:51;;;;;;;469.65;454.58;;;;;;;;;;4999442;28;20237;-89
2023/09/10 03:53:17;;;;;;;452.92;438.55;;;;;;;;;;5000111;28;20266;-90
2023/09/10 03:55:43;;;;;;;455.17;440.75;;;;;;;;;;4999675;28;20603;-90
2023/09/10 03:58:10;;;;;;;448.75;434.13;;;;;;;;;;4999792;28;20185;-90
2023/09/10 04:00:36;;;;;;;437.30;423.63;;;;;;;;;;5002236;28;20213;-90
2023/09/10 04:03:02;;;;;;;452.40;438.02;;;;;;;;;;5002826;28;20244;-90
2023/09/10 04:05:28;;;;;;;444.02;429.73;;;;;;;;;;5002564;28;20211;-89
2023/09/10 04:07:54;;;;;;;450.95;436.77;;;;;;;;;;5003940;28;20186;-90
2023/09/10 04:10:20;;;;;;;453.10;438.83;;;;;;;;;;5004581;28;20182;-90
2023/09/10 04:12:46;;;;;;;455.98;441.50;;;;;;;;;;5003648;28;20680;-89
2023/09/10 04:15:12;;;;;;;441.67;427.85;;;;;;;;;;5003733;28;20202;-90
2023/09/10 04:17:38;;;;;;;443.30;429.33;;;;;;;;;;5003238;28;20182;-90
2023/09/10 04:20:07;;;;;;;451.75;437.33;;;;;;;;;;5005080;28;20677;-90
2023/09/10 04:22:33;;;;;;;454.73;440.52;;;;;;;;;;5006502;28;20213;-90
2023/09/10 04:24:59;;;;;;;458.88;444.25;;;;;;;;;;5010775;28;20539;-89
2023/09/10 04:27:25;;;;;;;449.42;435.50;;;;;;;;;;5043646;28;20204;-89
2023/09/10 04:29:53;;;;;;;453.70;439.20;;;;;;;;;;5042642;28;20181;-89
2023/09/10 04:32:19;;;;;;;447.70;433.63;;;;;;;;;;5041668;28;20204;-89
2023/09/10 04:34:45;;;;;;;450.00;435.30;;;;;;;;;;5050620;28;20177;-90
2023/09/10 04:37:11;;;;;;;437.38;423.75;;;;;;;;;;5056370;28;20192;-90
2023/09/10 04:39:38;;;;;;;449.02;434.85;;;;;;;;;;5056907;28;20236;-90
2023/09/10 04:42:04;;;;;;;428.83;415.25;;;;;;;;;;5046424;28;20207;-87
2023/09/10 04:44:30;;;;;;;429.02;415.48;;;;;;;;;;5043823;28;20185;-89
2023/09/10 04:46:56;;;;;;;449.90;435.65;;;;;;;;;;5043215;28;20188;-90
2023/09/10 04:49:24;;;;;;;436.40;422.52;;;;;;;;;;5041860;28;20244;-89
2023/09/10 04:51:50;;;;;;;427.63;413.98;;;;;;;;;;5041930;28;20355;-88
2023/09/10 04:54:16;;;;;;;432.70;418.85;;;;;;;;;;5041353;28;20220;-90
2023/09/10 04:56:41;;;;;;;419.90;406.77;;;;;;;;;;5041087;28;20592;-89
2023/09/10 04:59:07;;;;;;;415.83;402.13;;;;;;;;;;5042454;28;20177;-90
2023/09/10 05:01:34;;;;;;;429.52;416.13;;;;;;;;;;5043126;28;20278;-90
2023/09/10 05:04:00;;;;;;;429.92;416.33;;;;;;;;;;5042470;28;20574;-88
2023/09/10 05:06:26;;;;;;;420.15;407.05;;;;;;;;;;5022243;28;20181;-89
2023/09/10 05:08:52;;;;;;;409.75;396.85;;;;;;;;;;5021974;28;20176;-90
2023/09/10 05:11:18;;;;;;;429.73;416.23;;;;;;;;;;5021049;28;20254;-88
2023/09/10 05:13:44;;;;;;;430.30;416.90;;;;;;;;;;5020331;28;20675;-88
2023/09/10 05:16:10;;;;;;;411.10;398.33;;;;;;;;;;5020582;28;20177;-90
2023/09/10 05:18:36;;;;;;;431.25;416.90;;;;;;;;;;5022412;28;20200;-89
2023/09/10 05:21:02;;;;;;;412.33;399.45;;;;;;;;;;5005247;28;20217;-90
2023/09/10 05:23:28;;;;;;;413.92;401.10;;;;;;;;;;5022200;28;20189;-89
2023/09/10 05:25:55;;;;;;;403.65;391.33;;;;;;;;;;5021846;28;20177;-90
2023/09/10 05:28:21;;;;;;;409.98;396.92;;;;;;;;;;5003607;28;20195;-90
2023/09/10 05:30:47;;;;;;;403.65;391.15;;;;;;;;;;5021309;28;20181;-90
2023/09/10 05:33:13;;;;;;;400.30;388.00;;;;;;;;;;5021966;28;20184;-90
2023/09/10 05:35:39;;;;;;;404.40;391.77;;;;;;;;;;5022144;28;20196;-90
2023/09/10 05:38:05;;;;;;;415.75;402.50;;;;;;;;;;5021599;28;20192;-89
2023/09/10 05:40:36;;;;;;;416.25;403.35;;;;;;;;;;5021026;28;20219;-90
2023/09/10 05:43:03;;;;;;;403.23;390.55;;;;;;;;;;5021478;28;20166;-88
2023/09/10 05:45:29;;;;;;;410.27;397.38;;;;;;;;;;5020659;28;20269;-91
2023/09/10 05:47:54;;;;;;;399.50;386.88;;;;;;;;;;5021272;28;20655;-89
2023/09/10 05:50:21;;;;;;;412.45;399.65;;;;;;;;;;5020487;28;20186;-89
2023/09/10 05:52:47;;;;;;;405.48;393.00;;;;;;;;;;5019152;28;20215;-90
2023/09/10 05:55:13;;;;;;;407.15;394.60;;;;;;;;;;5019584;28;20189;-90
2023/09/10 05:57:39;;;;;;;399.80;387.38;;;;;;;;;;5019291;28;20610;-90
2023/09/10 06:00:05;;;;;;;397.85;385.60;;;;;;;;;;5020827;28;20206;-90
2023/09/10 06:02:31;;;;;;;391.75;379.75;;;;;;;;;;5020879;28;20204;-89
2023/09/10 06:04:57;;;;;;;401.00;388.55;;;;;;;;;;5019504;28;20180;-88
2023/09/10 06:07:23;;;;;;;401.95;389.55;;;;;;;;;;5020653;28;20174;-88
2023/09/10 06:09:49;;;;;;;388.77;376.65;;;;;;;;;;5021407;28;20380;-91
2023/09/10 06:12:15;;;;;;;401.95;389.17;;;;;;;;;;5019128;28;20201;-89
2023/09/10 06:14:41;;;;;;;402.58;389.45;;;;;;;;;;5020359;28;20544;-91
2023/09/10 06:17:07;;;;;;;387.10;374.90;;;;;;;;;;5020937;28;20308;-90
2023/09/10 06:19:33;;;;;;;392.33;380.00;;;;;;;;;;5020808;28;20189;-91
2023/09/10 06:21:59;;;;;;;414.38;401.17;;;;;;;;;;5020830;28;20208;-91
2023/09/10 06:24:25;;;;;;;420.48;407.05;;;;;;;;;;5017164;28;20170;-89
2023/09/10 06:26:51;;;;;;;455.92;441.48;;;;;;;;;;5020066;28;20192;-87
2023/09/10 06:29:17;;;;;;;462.90;447.80;;;;;;;;;;5020288;28;20213;-87
2023/09/10 06:31:43;;;;;;;471.50;456.30;;;;;;;;;;5018827;28;20217;-89
2023/09/10 06:34:09;;;;;;;506.73;490.20;;;;;;;;;;5019072;28;20189;-89
2023/09/10 06:36:35;;;;;;;508.20;491.35;;;;;;;;;;5021922;28;20181;-87
2023/09/10 06:39:04;;;;;;;494.95;478.65;;;;;;;;;;5020704;28;20189;-87
2023/09/10 06:41:30;;;;;;;517.58;500.58;;;;;;;;;;5019036;28;20691;-89
2023/09/10 06:43:56;;;;;;;511.75;494.48;;;;;;;;;;5019991;28;20181;-88
2023/09/10 06:46:22;;;;;;;524.83;507.58;;;;;;;;;;5019810;28;20702;-89
2023/09/10 06:48:48;;;;;;;523.72;506.15;;;;;;;;;;5019618;28;20571;-88
2023/09/10 06:51:14;;;;;;;550.95;532.00;;;;;;;;;;5018116;28;20289;-88
2023/09/10 06:53:40;;;;;;;544.85;526.40;;;;;;;;;;5019118;28;20185;-88
2023/09/10 06:56:06;;;;;;;540.05;521.90;;;;;;;;;;5018473;28;20190;-87
2023/09/10 06:58:32;;;;;;;541.63;523.50;;;;;;;;;;5020153;28;20180;-90
2023/09/10 07:01:03;;;;;;;536.80;518.75;;;;;;;;;;5018609;28;20755;-87
2023/09/10 07:03:31;;;;;;;547.83;528.85;;;;;;;;;;5018148;28;20574;-89
2023/09/10 07:05:58;;;;;;;548.95;530.33;;;;;;;;;;5017799;28;20239;-88
2023/09/10 07:08:24;;;;;;;588.72;568.05;;;;;;;;;;5019958;28;20195;-90
2023/09/10 07:10:50;;;;;;;539.58;520.25;;;;;;;;;;5019823;28;20610;-87
2023/09/10 07:13:16;;;;;;;531.25;513.65;;;;;;;;;;5019053;28;20245;-89
2023/09/10 07:15:42;;;;;;;555.70;536.75;;;;;;;;;;5018520;28;20181;-88
2023/09/10 07:18:08;;;;;;;553.60;534.58;;;;;;;;;;5006268;28;20182;-88
2023/09/10 07:20:34;;;;;;;552.13;533.33;;;;;;;;;;5020147;28;20235;-89
2023/09/10 07:23:00;;;;;;;565.72;546.42;;;;;;;;;;5018803;28;20199;-88
2023/09/10 07:25:26;;;;;;;528.88;511.13;;;;;;;;;;5008615;28;20187;-89
2023/09/10 07:27:52;;;;;;;573.90;553.78;;;;;;;;;;5001318;28;20189;-88
2023/09/10 07:30:18;;;;;;;576.10;556.33;;;;;;;;;;5001650;28;20181;-90
2023/09/10 07:32:46;;;;;;;588.22;567.80;;;;;;;;;;5019807;28;20212;-89
2023/09/10 07:35:12;;;;;;;623.58;601.17;;;;;;;;;;5018684;28;20252;-88
2023/09/10 07:37:38;;;;;;;637.22;613.78;;;;;;;;;;5013845;28;20687;-89
2023/09/10 07:40:05;;;;;;;643.53;619.40;;;;;;;;;;5003995;28;20213;-88
2023/09/10 07:42:31;;;;;;;637.33;613.80;;;;;;;;;;5001183;28;20203;-88
2023/09/10 07:44:57;;;;;;;652.55;628.97;;;;;;;;;;5000335;28;20190;-90
2023/09/10 07:47:23;;;;;;;647.03;623.08;;;;;;;;;;5010929;28;20548;-88
2023/09/10 07:49:52;;;;;;;650.15;626.50;;;;;;;;;;5016423;28;20181;-90
2023/09/10 07:52:18;;;;;;;593.92;573.35;;;;;;;;;;5016879;28;20205;-89
2023/09/10 07:54:44;;;;;;;623.90;601.47;;;;;;;;;;5012714;28;20722;-89
2023/09/10 07:57:10;;;;;;;652.28;628.15;;;;;;;;;;5004802;28;20624;-91
2023/09/10 07:59:36;;;;;;;637.70;614.65;;;;;;;;;;5005264;28;20189;-89
2023/09/10 08:02:02;;;;;;;635.85;612.92;;;;;;;;;;5016384;28;20289;-89
2023/09/10 08:04:28;;;;;;;659.47;634.47;;;;;;;;;;5016065;28;20279;-91
2023/09/10 08:06:56;;;;;;;596.75;575.42;;;;;;;;;;5014973;28;20205;-91
2023/09/10 08:09:22;;;;;;;587.50;567.20;;;;;;;;;;5008901;28;20647;-91
2023/09/10 08:11:48;;;;;;;596.50;575.80;;;;;;;;;;4997654;28;20221;-89
2023/09/10 08:14:14;;;;;;;596.55;575.60;;;;;;;;;;4996070;28;20648;-90
2023/09/10 08:16:40;;;;;;;636.13;613.42;;;;;;;;;;4997296;28;20186;-89
2023/09/10 08:19:06;;;;;;;650.38;626.80;;;;;;;;;;4997051;28;20183;-91
2023/09/10 08:21:32;;;;;;;642.45;619.22;;;;;;;;;;4996428;28;20261;-90
2023/09/10 08:23:58;;;;;;;656.38;632.35;;;;;;;;;;4997370;28;20591;-90
2023/09/10 08:26:24;;;;;;;629.50;606.75;;;;;;;;;;4996985;28;20183;-89
2023/09/10 08:28:50;;;;;;;639.10;616.20;;;;;;;;;;4996494;28;20209;-89
2023/09/10 08:31:16;;;;;;;647.28;623.92;;;;;;;;;;5016633;28;20201;-89
2023/09/10 08:33:42;;;;;;;666.28;641.67;;;;;;;;;;5016135;28;20174;-89
2023/09/10 08:36:08;;;;;;;720.40;691.95;;;;;;;;;;5017045;28;20174;-91
2023/09/10 08:38:34;;;;;;;773.65;741.70;;;;;;;;;;5014832;28;20178;-91
2023/09/10 08:41:00;;;;;;;773.08;740.83;;;;;;;;;;5015157;28;20296;-88
2023/09/10 08:43:39;;;;;;;800.67;766.80;;;;;;;;;;5009015;28;20197;-90
2023/09/10 08:46:09;;;;;;;810.10;774.72;;;;;;;;;;4994537;28;20178;-87
2023/09/10 08:48:36;;;;;;;767.05;735.42;;;;;;;;;;4999300;28;20649;-90
2023/09/10 08:51:03;;;;;;;747.05;716.67;;;;;;;;;;5000019;28;20205;-91
2023/09/10 08:53:29;;;;;;;763.50;732.22;;;;;;;;;;5001437;28;20560;-91
2023/09/10 08:55:55;;;;;;;1113.45;836.40;;;;;;;;;;5009757;28;20716;-88
2023/09/10 08:58:22;;;;;;;1411.95;893.25;;;;;;;;;;5019326;28;20204;-92
2023/09/10 09:00:50;;;;;;;804.42;769.72;;;;;;;;;;5015727;28;20202;-90
2023/09/10 09:03:16;;;;;;;1412.40;893.80;;;;;;;;;;5012027;28;20178;-89
2023/09/10 09:05:42;;;;;;;1999.90;999.90;;;;;;;;;;5018468;28;20185;-89
2023/09/10 09:08:09;;;;;;;1999.90;999.90;;;;;;;;;;5018071;28;20194;-89
2023/09/10 09:10:35;;;;;;;1999.90;999.90;;;;;;;;;;5016605;28;20901;-91
2023/09/10 09:13:06;;;;;;;1999.90;999.90;;;;;;;;;;5028722;28;20181;-90
2023/09/10 09:15:32;;;;;;;1999.90;999.90;;;;;;;;;;5036460;28;20165;-91
2023/09/10 09:17:59;;;;;;;1999.90;999.90;;;;;;;;;;5035886;28;20174;-92
2023/09/10 09:20:25;;;;;;;1999.90;999.90;;;;;;;;;;5032754;28;20942;-93
2023/09/10 09:23:00;;;;;;;1999.90;999.90;;;;;;;;;;5032230;28;20209;-90
2023/09/10 09:25:27;;;;;;;1999.90;999.90;;;;;;;;;;5027075;28;20181;-89
2023/09/10 09:27:55;;;;;;;1999.90;999.90;;;;;;;;;;5025232;28;20178;-90
2023/09/10 09:30:21;;;;;;;1999.90;999.90;;;;;;;;;;5018170;28;20224;-90
2023/09/10 09:32:49;;;;;;;1999.90;999.90;;;;;;;;;;5014099;28;20858;-89
2023/09/10 09:35:15;;;;;;;1999.90;999.90;;;;;;;;;;4998344;28;20249;-88
2023/09/10 09:37:41;;;;;;;1999.90;999.90;;;;;;;;;;5002866;28;20178;-89
2023/09/10 09:40:09;;;;;;;1999.90;999.90;;;;;;;;;;5019411;28;20248;-87
2023/09/10 09:42:36;;;;;;;1999.90;999.90;;;;;;;;;;5018049;28;20193;-88
2023/09/10 09:45:03;;;;;;;1999.90;999.90;;;;;;;;;;5020042;28;20321;-92
2023/09/10 09:47:33;;;;;;;1999.90;999.90;;;;;;;;;;5018392;28;20206;-89
2023/09/10 09:49:59;;;;;;;1999.90;999.90;;;;;;;;;;5018627;28;20162;-89
2023/09/10 09:52:25;;;;;;;1999.90;999.90;;;;;;;;;;5000020;28;20202;-89
2023/09/10 09:54:51;;;;;;;1999.90;999.90;;;;;;;;;;5008663;28;20182;-89
2023/09/10 09:57:18;;;;;;;1999.90;999.90;;;;;;;;;;5008871;28;20318;-89
2023/09/10 09:59:44;;;;;;;1999.90;999.90;;;;;;;;;;5011843;28;20204;-88
2023/09/10 10:02:12;;;;;;;1999.90;999.90;;;;;;;;;;5010609;28;20931;-88
2023/09/10 10:04:40;;;;;;;1999.90;999.90;;;;;;;;;;5001718;28;20237;-91
2023/09/10 10:07:07;;;;;;;1999.90;999.90;;;;;;;;;;5017575;28;20174;-88
2023/09/10 10:09:36;;;;;;;1999.90;999.90;;;;;;;;;;5025676;28;20181;-89
2023/09/10 10:12:05;;;;;;;1999.90;999.90;;;;;;;;;;5037539;28;20221;-90
2023/09/10 10:14:32;;;;;;;1999.90;999.90;;;;;;;;;;5038827;28;20181;-89
2023/09/10 10:17:01;;;;;;;1999.90;999.90;;;;;;;;;;5037679;28;20382;-90
2023/09/10 10:19:30;;;;;;;1999.90;999.90;;;;;;;;;;5037461;28;20177;-89
2023/09/10 10:21:56;;;;;;;1999.90;999.90;;;;;;;;;;5036265;28;20212;-91
2023/09/10 10:24:23;;;;;;;1999.90;999.90;;;;;;;;;;5036818;28;20246;-89
2023/09/10 10:26:49;;;;;;;1999.90;999.90;;;;;;;;;;5005532;28;20186;-92
2023/09/10 10:29:15;;;;;;;1999.90;999.90;;;;;;;;;;4996981;28;20193;-89
2023/09/10 10:31:42;;;;;;;1999.90;999.90;;;;;;;;;;4996729;28;20866;-90
2023/09/10 10:34:34;;;;;;;1999.90;999.90;;;;;;;;;;4998355;28;20182;-89
2023/09/10 10:37:19;;;;;;;1999.90;999.90;;;;;;;;;;4995863;28;20206;-92
2023/09/10 10:39:58;;;;;;;1999.90;999.90;;;;;;;;;;4996145;28;20197;-90
2023/09/10 10:42:29;;;;;;;1999.90;999.90;;;;;;;;;;4998015;28;20770;-90
2023/09/10 10:44:57;;;;;;;1999.90;999.90;;;;;;;;;;5000863;28;20703;-91
2023/09/10 10:47:23;;;;;;;1999.90;999.90;;;;;;;;;;5016661;28;20264;-89
2023/09/10 10:49:54;;;;;;;1999.90;999.90;;;;;;;;;;5016761;28;20170;-91
2023/09/10 10:52:30;;;;;;;1999.90;999.90;;;;;;;;;;5018119;28;20220;-90
2023/09/10 10:54:56;;;;;;;1999.90;999.90;;;;;;;;;;5017967;28;20181;-90
2023/09/10 10:57:24;;;;;;;1999.90;999.90;;;;;;;;;;5019690;28;20244;-94
2023/09/10 10:59:50;;;;;;;1999.90;999.90;;;;;;;;;;5023789;28;20267;-92
2023/09/10 11:02:23;;;;;;;1999.90;999.90;;;;;;;;;;5032482;28;20197;-92
2023/09/10 11:04:55;;;;;;;1999.90;999.90;;;;;;;;;;5020853;28;20204;-89
2023/09/10 11:07:22;;;;;;;1999.90;999.90;;;;;;;;;;5016402;28;20186;-91
2023/09/10 11:09:48;;;;;;;1999.90;999.90;;;;;;;;;;5012346;28;20244;-89
2023/09/10 11:12:15;;;;;;;1999.90;999.90;;;;;;;;;;5012698;28;20545;-91
2023/09/10 11:15:13;;;;;;;1999.90;999.90;;;;;;;;;;5017407;28;20248;-90
2023/09/10 11:17:39;;;;;;;1999.90;999.90;;;;;;;;;;4983945;28;20197;-90
2023/09/10 11:20:06;;;;;;;1999.90;999.90;;;;;;;;;;5016407;28;20213;-89
2023/09/10 11:22:51;;;;;;;1999.90;999.90;;;;;;;;;;5016112;28;20213;-92
2023/09/10 11:25:17;;;;;;;1999.90;999.90;;;;;;;;;;5014957;28;20245;-88
2023/09/10 11:27:43;;;;;;;1999.90;999.90;;;;;;;;;;5011302;28;20198;-90
2023/09/10 11:30:09;;;;;;;1999.90;999.90;;;;;;;;;;4996998;28;20182;-90
2023/09/10 11:32:35;;;;;;;1999.90;999.90;;;;;;;;;;4997626;28;20672;-90
2023/09/10 11:35:27;;;;;;;1999.90;999.90;;;;;;;;;;5006853;28;20332;-91
2023/09/10 11:37:55;;;;;;;1999.90;999.90;;;;;;;;;;4997191;28;20198;-90
2023/09/10 11:40:22;;;;;;;1999.90;999.90;;;;;;;;;;4995751;28;20453;-89
2023/09/10 11:42:49;;;;;;;1999.90;999.90;;;;;;;;;;4996469;28;20205;-92
2023/09/10 11:45:16;;;;;;;1999.90;999.90;;;;;;;;;;4997283;28;20174;-88
2023/09/10 11:47:46;;;;;;;1999.90;999.90;;;;;;;;;;4997380;28;20206;-90
2023/09/10 11:50:12;;;;;;;1999.90;999.90;;;;;;;;;;4996367;28;20196;-90
2023/09/10 11:52:40;;;;;;;1999.90;999.90;;;;;;;;;;5012263;28;20684;-88
2023/09/10 11:55:09;;;;;;;1999.90;999.90;;;;;;;;;;5016141;28;20249;-92
2023/09/10 11:57:35;;;;;;;1999.90;999.90;;;;;;;;;;5012586;28;20682;-91
2023/09/10 12:00:02;;;;;;;1999.90;999.90;;;;;;;;;;4997677;28;20458;-90
2023/09/10 12:02:28;;;;;;;1999.90;999.90;;;;;;;;;;5007919;28;20571;-90
2023/09/10 12:04:54;;;;;;;1999.90;999.90;;;;;;;;;;5017124;28;20324;-90
2023/09/10 12:07:20;;;;;;;1999.90;999.90;;;;;;;;;;5016384;28;20286;-90
2023/09/10 12:09:46;;;;;;;1999.90;999.90;;;;;;;;;;5015162;28;20188;-90
2023/09/10 12:12:15;;;;;;;1999.90;999.90;;;;;;;;;;5017938;28;20212;-90
2023/09/10 12:14:42;;;;;;;1999.90;999.90;;;;;;;;;;5009428;28;20538;-90
2023/09/10 12:17:08;;;;;;;1999.90;999.90;;;;;;;;;;5019187;28;20186;-92
2023/09/10 12:19:34;;;;;;;1999.90;999.90;;;;;;;;;;5019642;28;20263;-91
2023/09/10 12:22:02;;;;;;;1999.90;999.90;;;;;;;;;;5020825;28;20194;-90
2023/09/10 12:24:28;;;;;;;1999.90;999.90;;;;;;;;;;5022459;28;20166;-91
2023/09/10 12:26:54;;;;;;;1999.90;999.90;;;;;;;;;;5015754;28;20233;-91
2023/09/10 12:29:20;;;;;;;1999.90;999.90;;;;;;;;;;5009276;28;20189;-91
2023/09/10 12:31:52;;;;;;;1999.90;999.90;;;;;;;;;;5008143;28;20269;-92
2023/09/10 12:34:18;;;;;;;1999.90;999.90;;;;;;;;;;5014456;28;20162;-90
2023/09/10 12:36:45;;;;;;;1999.90;999.90;;;;;;;;;;5012525;28;20261;-91
2023/09/10 12:39:22;;;;;;;1999.90;999.90;;;;;;;;;;5004681;28;20203;-90
2023/09/10 12:41:49;;;;;;;1999.90;999.90;;;;;;;;;;5011428;28;20307;-92
2023/09/10 12:44:15;;;;;;;1999.90;999.90;;;;;;;;;;5008928;28;20173;-91
2023/09/10 12:46:41;;;;;;;1999.90;999.90;;;;;;;;;;5015079;28;20343;-90
2023/09/10 12:49:07;;;;;;;1999.90;999.90;;;;;;;;;;5019149;28;20190;-90
2023/09/10 12:51:33;;;;;;;1999.90;999.90;;;;;;;;;;5010378;28;20276;-91
2023/09/10 12:53:59;;;;;;;1999.90;999.90;;;;;;;;;;5020338;28;20178;-93
2023/09/10 12:56:27;;;;;;;1999.90;999.90;;;;;;;;;;5013781;28;20221;-90
2023/09/10 12:58:53;;;;;;;1999.90;999.90;;;;;;;;;;5014754;28;20196;-90
2023/09/10 13:01:25;;;;;;;1999.90;999.90;;;;;;;;;;5012058;28;20206;-91
2023/09/10 13:03:51;;;;;;;1999.90;999.90;;;;;;;;;;5009492;28;20182;-90
2023/09/10 13:06:17;;;;;;;1999.90;999.90;;;;;;;;;;5020943;28;20182;-92
2023/09/10 13:08:43;;;;;;;1999.90;999.90;;;;;;;;;;5020461;28;20666;-90
2023/09/10 13:11:09;;;;;;;1999.90;999.90;;;;;;;;;;5041148;28;20204;-91
2023/09/10 13:13:35;;;;;;;1999.90;999.90;;;;;;;;;;5041660;28;20207;-90
2023/09/10 13:16:04;;;;;;;1999.90;999.90;;;;;;;;;;5040324;28;20662;-89
2023/09/10 13:18:30;;;;;;;1999.90;999.90;;;;;;;;;;5020197;28;20228;-90
2023/09/10 13:20:56;;;;;;;1999.90;999.90;;;;;;;;;;5023136;28;20673;-93
2023/09/10 13:23:22;;;;;;;1999.90;999.90;;;;;;;;;;5022058;28;20702;-91
2023/09/10 13:25:48;;;;;;;1999.90;999.90;;;;;;;;;;5010955;28;20306;-91
2023/09/10 13:28:23;;;;;;;1999.90;999.90;;;;;;;;;;5015120;28;20181;-93
2023/09/10 13:30:50;;;;;;;1999.90;999.90;;;;;;;;;;5007837;28;20595;-92
2023/09/10 13:33:16;;;;;;;1999.90;999.90;;;;;;;;;;5013143;28;20193;-91
2023/09/10 13:35:42;;;;;;;1999.90;999.90;;;;;;;;;;5020403;28;20182;-91
2023/09/10 13:38:08;;;;;;;1999.90;999.90;;;;;;;;;;5017434;28;20272;-91
2023/09/10 13:40:36;;;;;;;1999.90;999.90;;;;;;;;;;5004463;28;20710;-91
2023/09/10 13:43:02;;;;;;;1999.90;999.90;;;;;;;;;;5003303;28;20246;-91
2023/09/10 13:45:28;;;;;;;1999.90;999.90;;;;;;;;;;5008946;28;20184;-94
2023/09/10 13:47:54;;;;;;;1999.90;999.90;;;;;;;;;;5025144;28;20199;-92
2023/09/10 13:50:20;;;;;;;1999.90;999.90;;;;;;;;;;5032290;28;20192;-93